Time;durP1;ratioP1;P1;durP2;ratioP2;P2;SDS_P1;SDS_P2;PMS_P1;PMS_P2;Temp;Humidity;BMP_temperature;BMP_pressure;BME280_temperature;BME280_humidity;BME280_pressure;Samples;Min_cycle;Max_cycle;Signal;HPM_P1;HPM_P2
2021/09/15 00:01:45;;;;;;;6.4;4.2;;;;;;;;;;;;;
2021/09/15 00:04:11;;;;;;;5.6;4.1;;;;;;;;;;;;;
2021/09/15 00:06:36;;;;;;;6.3;4;;;;;;;;;;;;;
2021/09/15 00:09:01;;;;;;;4.8;4;;;;;;;;;;;;;
2021/09/15 00:11:26;;;;;;;6.3;5.3;;;;;;;;;;;;;
2021/09/15 00:13:51;;;;;;;5.2;4.6;;;;;;;;;;;;;
2021/09/15 00:16:16;;;;;;;6;5;;;;;;;;;;;;;
2021/09/15 00:18:41;;;;;;;5.4;4.5;;;;;;;;;;;;;
2021/09/15 00:21:07;;;;;;;6.7;4.4;;;;;;;;;;;;;
2021/09/15 00:23:32;;;;;;;5.4;4.9;;;;;;;;;;;;;
2021/09/15 00:25:57;;;;;;;7.3;6.1;;;;;;;;;;;;;
2021/09/15 00:28:22;;;;;;;7.6;6.7;;;;;;;;;;;;;
2021/09/15 00:30:47;;;;;;;8.1;6.5;;;;;;;;;;;;;
2021/09/15 00:33:12;;;;;;;4.9;4.4;;;;;;;;;;;;;
2021/09/15 00:35:38;;;;;;;4.4;3.9;;;;;;;;;;;;;
2021/09/15 00:38:03;;;;;;;4.5;4.1;;;;;;;;;;;;;
2021/09/15 00:40:28;;;;;;;5.3;4.5;;;;;;;;;;;;;
2021/09/15 00:42:53;;;;;;;6;4.8;;;;;;;;;;;;;
2021/09/15 00:45:18;;;;;;;5.6;4.1;;;;;;;;;;;;;
2021/09/15 00:47:44;;;;;;;6.9;4.3;;;;;;;;;;;;;
2021/09/15 00:50:09;;;;;;;4.9;4;;;;;;;;;;;;;
2021/09/15 00:52:34;;;;;;;4.9;4.4;;;;;;;;;;;;;
2021/09/15 00:54:59;;;;;;;4.3;3.9;;;;;;;;;;;;;
2021/09/15 00:57:24;;;;;;;5.7;4;;;;;;;;;;;;;
2021/09/15 00:59:49;;;;;;;5.2;3.8;;;;;;;;;;;;;
2021/09/15 01:02:14;;;;;;;6.6;4.4;;;;;;;;;;;;;
2021/09/15 01:04:39;;;;;;;4.6;4.1;;;;;;;;;;;;;
2021/09/15 01:07:04;;;;;;;5.4;4.8;;;;;;;;;;;;;
2021/09/15 01:09:30;;;;;;;5.3;4.5;;;;;;;;;;;;;
2021/09/15 01:11:55;;;;;;;6.8;5;;;;;;;;;;;;;
2021/09/15 01:14:20;;;;;;;7;4.6;;;;;;;;;;;;;
2021/09/15 01:16:45;;;;;;;5.4;4.3;;;;;;;;;;;;;
2021/09/15 01:19:10;;;;;;;5.5;4.6;;;;;;;;;;;;;
2021/09/15 01:21:35;;;;;;;5.6;4.6;;;;;;;;;;;;;
2021/09/15 01:24:00;;;;;;;7.1;4.6;;;;;;;;;;;;;
2021/09/15 01:26:25;;;;;;;6.3;4.6;;;;;;;;;;;;;
2021/09/15 01:28:50;;;;;;;5.2;4.5;;;;;;;;;;;;;
2021/09/15 01:31:15;;;;;;;5.1;4.5;;;;;;;;;;;;;
2021/09/15 01:33:41;;;;;;;5.6;4.5;;;;;;;;;;;;;
2021/09/15 01:36:06;;;;;;;5.7;4.5;;;;;;;;;;;;;
2021/09/15 01:38:31;;;;;;;6.8;4.8;;;;;;;;;;;;;
2021/09/15 01:40:56;;;;;;;5.2;4.3;;;;;;;;;;;;;
2021/09/15 01:43:21;;;;;;;7.4;4.5;;;;;;;;;;;;;
2021/09/15 01:45:46;;;;;;;5.1;4.2;;;;;;;;;;;;;
2021/09/15 01:48:11;;;;;;;8.1;5;;;;;;;;;;;;;
2021/09/15 01:50:36;;;;;;;6;4.9;;;;;;;;;;;;;
2021/09/15 01:53:02;;;;;;;5.2;4.2;;;;;;;;;;;;;
2021/09/15 01:55:27;;;;;;;5.4;4.3;;;;;;;;;;;;;
2021/09/15 01:57:52;;;;;;;5.1;4.1;;;;;;;;;;;;;
2021/09/15 02:00:17;;;;;;;4.8;4.3;;;;;;;;;;;;;
2021/09/15 02:02:42;;;;;;;5.3;4.8;;;;;;;;;;;;;
2021/09/15 02:05:07;;;;;;;6.1;4.4;;;;;;;;;;;;;
2021/09/15 02:07:32;;;;;;;6.7;4.4;;;;;;;;;;;;;
2021/09/15 02:09:58;;;;;;;6.1;4.9;;;;;;;;;;;;;
2021/09/15 02:12:23;;;;;;;5.6;4.3;;;;;;;;;;;;;
2021/09/15 02:14:48;;;;;;;6.9;4.6;;;;;;;;;;;;;
2021/09/15 02:17:13;;;;;;;7.2;4.5;;;;;;;;;;;;;
2021/09/15 02:19:38;;;;;;;7.7;5.3;;;;;;;;;;;;;
2021/09/15 02:22:04;;;;;;;5.9;5.1;;;;;;;;;;;;;
2021/09/15 02:24:29;;;;;;;6.8;5.1;;;;;;;;;;;;;
2021/09/15 02:26:54;;;;;;;6.2;4.6;;;;;;;;;;;;;
2021/09/15 02:29:19;;;;;;;6;5.1;;;;;;;;;;;;;
2021/09/15 02:31:44;;;;;;;8.4;5.3;;;;;;;;;;;;;
2021/09/15 02:34:09;;;;;;;6.2;4.8;;;;;;;;;;;;;
2021/09/15 02:36:34;;;;;;;6.2;4.8;;;;;;;;;;;;;
2021/09/15 02:38:59;;;;;;;6;5;;;;;;;;;;;;;
2021/09/15 02:41:25;;;;;;;8.5;5;;;;;;;;;;;;;
2021/09/15 02:43:50;;;;;;;7.6;5.6;;;;;;;;;;;;;
2021/09/15 02:46:15;;;;;;;6.2;5;;;;;;;;;;;;;
2021/09/15 02:48:40;;;;;;;7.7;5.5;;;;;;;;;;;;;
2021/09/15 02:51:05;;;;;;;7.5;5.4;;;;;;;;;;;;;
2021/09/15 02:53:30;;;;;;;7.2;5.8;;;;;;;;;;;;;
2021/09/15 02:55:55;;;;;;;6.4;5.6;;;;;;;;;;;;;
2021/09/15 02:58:20;;;;;;;7.2;5.1;;;;;;;;;;;;;
2021/09/15 03:00:45;;;;;;;6.8;5.3;;;;;;;;;;;;;
2021/09/15 03:03:11;;;;;;;7.6;6;;;;;;;;;;;;;
2021/09/15 03:05:36;;;;;;;7.8;5.5;;;;;;;;;;;;;
2021/09/15 03:08:01;;;;;;;7.4;5.8;;;;;;;;;;;;;
2021/09/15 03:10:26;;;;;;;7.2;5.4;;;;;;;;;;;;;
2021/09/15 03:12:51;;;;;;;9;5.3;;;;;;;;;;;;;
2021/09/15 03:15:16;;;;;;;7.4;5.4;;;;;;;;;;;;;
2021/09/15 03:17:41;;;;;;;7.2;5.5;;;;;;;;;;;;;
2021/09/15 03:20:06;;;;;;;7.2;5.5;;;;;;;;;;;;;
2021/09/15 03:22:31;;;;;;;6.1;4.9;;;;;;;;;;;;;
2021/09/15 03:24:57;;;;;;;7;5.4;;;;;;;;;;;;;
2021/09/15 03:27:22;;;;;;;6.9;5.4;;;;;;;;;;;;;
2021/09/15 03:29:47;;;;;;;8.6;6.2;;;;;;;;;;;;;
2021/09/15 03:32:12;;;;;;;7.2;5.8;;;;;;;;;;;;;
2021/09/15 03:34:37;;;;;;;7.9;5.4;;;;;;;;;;;;;
2021/09/15 03:37:02;;;;;;;6.3;5.7;;;;;;;;;;;;;
2021/09/15 03:39:27;;;;;;;6.3;5.3;;;;;;;;;;;;;
2021/09/15 03:41:52;;;;;;;6.8;5.4;;;;;;;;;;;;;
2021/09/15 03:44:17;;;;;;;8.6;5.7;;;;;;;;;;;;;
2021/09/15 03:46:42;;;;;;;6.4;5.7;;;;;;;;;;;;;
2021/09/15 03:49:08;;;;;;;9.2;6.2;;;;;;;;;;;;;
2021/09/15 03:51:33;;;;;;;7.9;6.2;;;;;;;;;;;;;
2021/09/15 03:53:58;;;;;;;9.6;6.4;;;;;;;;;;;;;
2021/09/15 03:56:23;;;;;;;7.4;5.7;;;;;;;;;;;;;
2021/09/15 03:58:48;;;;;;;8.3;6.5;;;;;;;;;;;;;
2021/09/15 04:02:31;;;;;;;9.4;6.7;;;;;;;16.58;88.53125;936.9389;;;;
2021/09/15 04:04:56;;;;;;;8.4;6.3;;;;;;;16.32;89.78613;936.8639;;;;
2021/09/15 04:07:22;;;;;;;9.3;6.7;;;;;;;16.29;90.27637;936.883;;;;
2021/09/15 04:10:08;;;;;;;8.3;7.1;;;;;;;16.44;89.52051;936.9107;;;;
2021/09/15 04:12:12;;;;;;;8.3;6.5;;;;;;;16.56;88.5957;936.8654;;;;
2021/09/15 04:14:38;;;;;;;7.8;6.5;;;;;;;16.51;88.36621;936.83;;;;
2021/09/15 04:17:02;;;;;;;9.4;6.9;;;;;;;16.53;88.79688;936.8635;;;;
2021/09/15 04:19:27;;;;;;;9.7;7.1;;;;;;;16.45;89.20801;936.8631;;;;
2021/09/15 04:21:52;;;;;;;8.8;7;;;;;;;16.41;89.33008;936.845;;;;
2021/09/15 04:24:37;;;;;;;10.1;6.9;;;;;;;16.49;88.58301;936.8881;;;;
2021/09/15 04:31:33;;;;;;;9.1;6.7;;;;;;;16.42;88.7998;936.8499;;;;
2021/09/15 04:33:58;;;;;;;10.4;7.8;;;;;;;16.41;88.33496;936.9003;;;;
2021/09/15 04:36:23;;;;;;;8.9;7.1;;;;;;;16.51;88.03223;936.8484;;;;
2021/09/15 04:38:49;;;;;;;8.5;6.9;;;;;;;16.49;88.07324;936.905;;;;
2021/09/15 04:41:14;;;;;;;10;7.3;;;;;;;16.39;88.49316;936.8491;;;;
2021/09/15 04:43:39;;;;;;;9.4;7.3;;;;;;;16.39;88.37793;936.8427;;;;
2021/09/15 04:46:04;;;;;;;10.1;7.6;;;;;;;16.45;88.49316;936.9153;;;;
2021/09/15 04:48:29;;;;;;;9.2;7.1;;;;;;;16.38;88.95215;936.9233;;;;
2021/09/15 04:50:54;;;;;;;9.2;7.3;;;;;;;16.38;88.9541;936.9731;;;;
2021/09/15 04:53:20;;;;;;;9.4;7.1;;;;;;;16.41;88.57813;936.9855;;;;
2021/09/15 04:55:45;;;;;;;10.2;7.6;;;;;;;16.52;88.25293;936.8756;;;;
2021/09/15 04:58:10;;;;;;;8.9;6.8;;;;;;;16.53;88.23145;936.8859;;;;
2021/09/15 05:00:35;;;;;;;9.5;7.1;;;;;;;16.56;87.64648;936.8967;;;;
2021/09/15 05:03:00;;;;;;;9.2;7.3;;;;;;;16.65;87.49219;936.947;;;;
2021/09/15 05:05:25;;;;;;;9.8;7.4;;;;;;;16.72;87.35449;936.9357;;;;
2021/09/15 05:07:50;;;;;;;9.5;7;;;;;;;16.69;87.34961;936.97;;;;
2021/09/15 05:10:16;;;;;;;10.2;6.6;;;;;;;16.69;87.73145;936.9877;;;;
2021/09/15 05:12:41;;;;;;;9.3;7.5;;;;;;;16.71;87.96875;937.0717;;;;
2021/09/15 05:15:06;;;;;;;9.6;7;;;;;;;16.82;87.45703;937.1234;;;;
2021/09/15 05:17:31;;;;;;;8.5;7;;;;;;;16.88;86.7959;937.07;;;;
2021/09/15 05:19:56;;;;;;;8.1;6.4;;;;;;;16.89;86.65918;937.0804;;;;
2021/09/15 05:22:21;;;;;;;9.3;6.8;;;;;;;16.83;87.0166;937.1305;;;;
2021/09/15 05:24:46;;;;;;;9.1;7.3;;;;;;;16.82;87.06348;937.092;;;;
2021/09/15 05:27:12;;;;;;;9.4;7;;;;;;;16.88;86.85449;937.0604;;;;
2021/09/15 05:29:37;;;;;;;9;6.8;;;;;;;16.83;87.67773;936.9706;;;;
2021/09/15 05:32:03;;;;;;;10.2;7.1;;;;;;;16.88;88.38281;936.9727;;;;
2021/09/15 05:34:28;;;;;;;10.2;7.3;;;;;;;17.07;87.5752;936.9673;;;;
2021/09/15 05:36:53;;;;;;;10.5;7.5;;;;;;;17.29;85.9375;937.1005;;;;
2021/09/15 05:39:18;;;;;;;7.9;6.7;;;;;;;17.28;85.73828;937.0516;;;;
2021/09/15 05:41:43;;;;;;;9.7;7.1;;;;;;;17.35;85.32324;937.1476;;;;
2021/09/15 05:44:08;;;;;;;8.2;6.8;;;;;;;17.36;85.2666;937.1443;;;;
2021/09/15 05:46:33;;;;;;;10.3;7.2;;;;;;;17.48;85.08301;937.1536;;;;
2021/09/15 05:48:58;;;;;;;9.3;7.2;;;;;;;17.62;84.7959;937.1536;;;;
2021/09/15 05:51:23;;;;;;;9.4;7.2;;;;;;;17.66;84.19922;937.1683;;;;
2021/09/15 05:53:49;;;;;;;8.8;6.4;;;;;;;17.73;84.5957;937.1688;;;;
2021/09/15 05:56:14;;;;;;;9.9;7;;;;;;;17.74;84.58594;937.0236;;;;
2021/09/15 05:58:39;;;;;;;10.5;7;;;;;;;17.94;83.49805;936.9932;;;;
2021/09/15 06:01:06;;;;;;;10;7;;;;;;;18.14;82.49023;936.9716;;;;
2021/09/15 06:03:30;;;;;;;9.6;6.9;;;;;;;18.09;82.02832;936.9999;;;;
2021/09/15 06:05:55;;;;;;;9.9;7.3;;;;;;;18.05;82.31055;936.9863;;;;
2021/09/15 06:08:20;;;;;;;8.2;7.2;;;;;;;18.17;82.17188;937.02;;;;
2021/09/15 06:10:45;;;;;;;8.5;6.8;;;;;;;18.1;82.15918;937.0609;;;;
2021/09/15 06:13:10;;;;;;;10.6;7.1;;;;;;;18.07;82.93164;937.0206;;;;
2021/09/15 06:15:35;;;;;;;10.1;7.3;;;;;;;18.22;82.58789;937.0006;;;;
2021/09/15 06:18:00;;;;;;;8;7.1;;;;;;;18.28;82.90039;937.0549;;;;
2021/09/15 06:20:25;;;;;;;9.6;7.7;;;;;;;18.25;82.63965;937.0041;;;;
2021/09/15 06:22:51;;;;;;;8.8;7;;;;;;;18.46;81.26074;936.9971;;;;
2021/09/15 06:25:16;;;;;;;10.5;9.4;;;;;;;18.51;81.66602;937.0185;;;;
2021/09/15 06:27:42;;;;;;;11.9;7.9;;;;;;;18.52;82.10938;937.0134;;;;
2021/09/15 06:30:06;;;;;;;10.2;8.3;;;;;;;18.48;81.70508;937.0589;;;;
2021/09/15 06:32:31;;;;;;;13.8;12.3;;;;;;;18.42;81.87988;937.0229;;;;
2021/09/15 06:34:56;;;;;;;12.7;9.5;;;;;;;18.3;82.25293;937.0891;;;;
2021/09/15 06:37:21;;;;;;;13.6;9.7;;;;;;;18.25;82.30273;937.0829;;;;
2021/09/15 06:39:46;;;;;;;9.5;8;;;;;;;18.38;82.50098;937.1454;;;;
2021/09/15 06:42:12;;;;;;;12.2;9.9;;;;;;;18.47;81.07715;937.092;;;;
2021/09/15 06:44:37;;;;;;;10.4;7.6;;;;;;;18.65;80.3877;937.137;;;;
2021/09/15 06:47:02;;;;;;;10.4;7.1;;;;;;;18.82;79.5;937.0984;;;;
2021/09/15 06:49:27;;;;;;;13.7;9.5;;;;;;;18.91;78.64355;937.0817;;;;
2021/09/15 06:51:52;;;;;;;9.4;8.1;;;;;;;19.08;78.3252;937.106;;;;
2021/09/15 06:54:17;;;;;;;9.4;7.4;;;;;;;19.27;77.98535;937.0959;;;;
2021/09/15 06:56:44;;;;;;;8.5;6.9;;;;;;;19.51;76.81348;937.0504;;;;
2021/09/15 06:59:07;;;;;;;10;7.2;;;;;;;19.71;76;937.0679;;;;
2021/09/15 07:01:33;;;;;;;11.3;7.8;;;;;;;19.63;75.8916;937.0201;;;;
2021/09/15 07:03:58;;;;;;;10.6;7.6;;;;;;;19.61;76.14453;937.0261;;;;
2021/09/15 07:06:23;;;;;;;9.7;7.5;;;;;;;19.97;75.86816;937.0594;;;;
2021/09/15 07:08:48;;;;;;;9.3;7;;;;;;;20.28;74.07617;937.0687;;;;
2021/09/15 07:11:13;;;;;;;8.8;7.1;;;;;;;20.41;73.6543;937.0215;;;;
2021/09/15 07:13:38;;;;;;;8.6;6.9;;;;;;;20.68;72.77734;937.0363;;;;
2021/09/15 07:16:04;;;;;;;7.6;6.7;;;;;;;20.86;71.27539;937.0284;;;;
2021/09/15 07:18:29;;;;;;;8;7.2;;;;;;;21.05;70.25195;936.9878;;;;
2021/09/15 07:20:54;;;;;;;9;7.6;;;;;;;21.17;69.88672;936.9935;;;;
2021/09/15 07:23:19;;;;;;;9;6.7;;;;;;;21.17;68.61133;937.0211;;;;
2021/09/15 07:25:44;;;;;;;9.2;7;;;;;;;21.43;69.5752;937.0189;;;;
2021/09/15 07:28:09;;;;;;;10.4;7.4;;;;;;;21.36;68.38281;937.0338;;;;
2021/09/15 07:30:34;;;;;;;8.9;6.8;;;;;;;21.5;67.80664;936.9322;;;;
2021/09/15 07:33:00;;;;;;;7.7;6.2;;;;;;;21.63;67.57031;936.9246;;;;
2021/09/15 07:35:25;;;;;;;7.8;6.7;;;;;;;21.84;67.19141;936.9432;;;;
2021/09/15 07:37:50;;;;;;;8.2;6.9;;;;;;;22.06;67.79883;936.9448;;;;
2021/09/15 07:40:16;;;;;;;7.8;6.4;;;;;;;22.09;66.60938;936.8592;;;;
2021/09/15 07:42:40;;;;;;;7.5;6.1;;;;;;;22.2;67.24609;936.7684;;;;
2021/09/15 07:45:17;;;;;;;7.7;5.9;;;;;;;22.37;67.2959;936.8278;;;;
2021/09/15 07:47:31;;;;;;;8.6;6.5;;;;;;;22.18;67.11426;936.7139;;;;
2021/09/15 07:49:56;;;;;;;7.6;6.6;;;;;;;21.97;67.93848;936.842;;;;
2021/09/15 07:52:21;;;;;;;7.7;6.4;;;;;;;22.18;66.96094;936.8837;;;;
2021/09/15 07:54:46;;;;;;;7.9;6.4;;;;;;;22.16;67.4873;936.7844;;;;
2021/09/15 07:57:11;;;;;;;8.6;6.8;;;;;;;22.22;65.9248;936.7263;;;;
2021/09/15 07:59:45;;;;;;;7.9;6.7;;;;;;;22.52;64.93652;936.7152;;;;
2021/09/15 08:02:09;;;;;;;9.1;6.5;;;;;;;22.8;65.59863;936.7881;;;;
2021/09/15 08:04:34;;;;;;;19.3;7.1;;;;;;;23.16;65.52246;936.7866;;;;
2021/09/15 08:06:59;;;;;;;8.7;6.2;;;;;;;23.18;63.56445;936.7562;;;;
2021/09/15 08:09:24;;;;;;;8.1;6.3;;;;;;;23.21;63.23926;936.7975;;;;
2021/09/15 08:11:50;;;;;;;9;6.7;;;;;;;23.26;65.62012;936.7859;;;;
2021/09/15 08:14:17;;;;;;;9.8;6.5;;;;;;;23.08;65.60449;936.7802;;;;
2021/09/15 08:16:42;;;;;;;9.4;6.6;;;;;;;23.03;64.96387;936.7178;;;;
2021/09/15 08:19:07;;;;;;;8.5;7;;;;;;;22.96;63.23828;936.7336;;;;
2021/09/15 08:21:33;;;;;;;7.3;6.4;;;;;;;22.9;63.08984;936.7594;;;;
2021/09/15 08:23:59;;;;;;;8.5;6.3;;;;;;;22.74;64.68555;936.8108;;;;
2021/09/15 08:26:23;;;;;;;8.6;7.3;;;;;;;22.69;64.63184;936.8152;;;;
2021/09/15 08:28:48;;;;;;;9;7.5;;;;;;;22.57;65.08594;936.7302;;;;
2021/09/15 08:31:13;;;;;;;10.4;8.2;;;;;;;22.66;65.14453;936.7125;;;;
2021/09/15 08:33:38;;;;;;;10;8;;;;;;;22.93;64.08008;936.7744;;;;
2021/09/15 08:36:03;;;;;;;11.5;8.3;;;;;;;23.27;62.64746;936.7723;;;;
2021/09/15 08:38:28;;;;;;;9.6;7.1;;;;;;;24.17;59.13379;936.7209;;;;
2021/09/15 08:40:54;;;;;;;7.9;6.8;;;;;;;25.72;55.8418;936.7505;;;;
2021/09/15 08:43:19;;;;;;;7.1;6.4;;;;;;;26.43;53.41016;936.7589;;;;
2021/09/15 08:45:44;;;;;;;7.2;6.2;;;;;;;26.74;52.04785;936.7156;;;;
2021/09/15 08:48:09;;;;;;;6.3;5.7;;;;;;;27.58;48.77637;936.7092;;;;
2021/09/15 08:50:34;;;;;;;5.6;5.1;;;;;;;28.73;46.05762;936.6803;;;;
2021/09/15 08:52:59;;;;;;;7.7;5.3;;;;;;;29.99;42.35645;936.6467;;;;
2021/09/15 08:55:24;;;;;;;6.6;5.7;;;;;;;30.78;41.04297;936.6047;;;;
2021/09/15 08:57:50;;;;;;;5.7;5.2;;;;;;;31.93;37.64844;936.5822;;;;
2021/09/15 09:00:15;;;;;;;6.1;5.4;;;;;;;32.68;37.23145;936.5242;;;;
2021/09/15 09:02:40;;;;;;;6.1;5.5;;;;;;;32.19;37.10742;936.4725;;;;
2021/09/15 09:05:05;;;;;;;6.8;5.6;;;;;;;30.94;38.02148;936.5281;;;;
2021/09/15 09:07:31;;;;;;;7;6.3;;;;;;;30.18;41.23926;936.5754;;;;
2021/09/15 09:09:56;;;;;;;7;6;;;;;;;29.34;42.67676;936.504;;;;
2021/09/15 09:12:21;;;;;;;7.7;6.1;;;;;;;28.6;43.65332;936.5064;;;;
2021/09/15 09:14:46;;;;;;;6.7;5.9;;;;;;;28.3;47.7373;936.5217;;;;
2021/09/15 09:17:11;;;;;;;6.7;6;;;;;;;27.87;48.21387;936.5189;;;;
2021/09/15 09:19:36;;;;;;;6.9;5.8;;;;;;;27.37;48.56348;936.5572;;;;
2021/09/15 09:22:06;;;;;;;6.8;6.1;;;;;;;26.9;49.13965;936.5083;;;;
2021/09/15 09:24:26;;;;;;;8.2;6;;;;;;;26.65;50.83008;936.4681;;;;
2021/09/15 09:26:52;;;;;;;7.2;6.4;;;;;;;26.14;50.76172;936.4105;;;;
2021/09/15 09:29:17;;;;;;;7.4;5.9;;;;;;;25.88;53.53418;936.4558;;;;
2021/09/15 09:31:42;;;;;;;7.8;6;;;;;;;25.58;53.36816;936.459;;;;
2021/09/15 09:34:07;;;;;;;6.9;6.2;;;;;;;25.6;53.47559;936.323;;;;
2021/09/15 09:36:32;;;;;;;7.2;6.3;;;;;;;25.27;53.93262;936.3005;;;;
2021/09/15 09:38:57;;;;;;;7.4;6;;;;;;;25.59;53.23926;936.351;;;;
2021/09/15 09:41:22;;;;;;;6.9;6.2;;;;;;;25.63;53.98828;936.3314;;;;
2021/09/15 09:43:47;;;;;;;7.6;6.2;;;;;;;25.55;54.81738;936.367;;;;
2021/09/15 09:46:12;;;;;;;7;6.2;;;;;;;25.47;55.65723;936.3761;;;;
2021/09/15 09:48:38;;;;;;;9;6.6;;;;;;;25.54;55.45313;936.3326;;;;
2021/09/15 09:51:03;;;;;;;11.5;6.5;;;;;;;25.41;53.70117;936.303;;;;
2021/09/15 09:53:28;;;;;;;7.2;6.5;;;;;;;25.47;56.31934;936.3641;;;;
2021/09/15 09:55:54;;;;;;;7.1;6.4;;;;;;;25.47;54.58398;936.3481;;;;
2021/09/15 09:58:18;;;;;;;7.8;6.2;;;;;;;25.65;55.75;936.3633;;;;
2021/09/15 10:00:43;;;;;;;7.1;6.4;;;;;;;25.63;55.18262;936.2985;;;;
2021/09/15 10:03:08;;;;;;;7.3;6.5;;;;;;;25.62;53.43164;936.3036;;;;
2021/09/15 10:05:33;;;;;;;8;6.5;;;;;;;25.62;52.67578;936.3421;;;;
2021/09/15 10:07:58;;;;;;;7;6.3;;;;;;;25.56;53.45898;936.264;;;;
2021/09/15 10:10:24;;;;;;;7.9;6.4;;;;;;;25.54;53.72754;936.327;;;;
2021/09/15 10:12:50;;;;;;;7.3;6.5;;;;;;;25.66;56.56836;936.3533;;;;
2021/09/15 10:15:14;;;;;;;9.1;6.6;;;;;;;25.77;56.12012;936.3611;;;;
2021/09/15 10:17:39;;;;;;;6.9;6.2;;;;;;;25.67;50.89648;936.3652;;;;
2021/09/15 10:20:06;;;;;;;7.1;6.4;;;;;;;25.7;58.16699;936.405;;;;
2021/09/15 10:22:29;;;;;;;7.8;6.5;;;;;;;25.71;58.91309;936.4305;;;;
2021/09/15 10:24:54;;;;;;;10.2;6.7;;;;;;;25.51;59.31348;936.462;;;;
2021/09/15 10:27:20;;;;;;;8.2;6.7;;;;;;;25.23;63.00684;936.5412;;;;
2021/09/15 10:29:45;;;;;;;7.5;6.6;;;;;;;25.01;64.06152;936.5489;;;;
2021/09/15 10:32:10;;;;;;;6.9;6.2;;;;;;;24.86;63.02539;936.5218;;;;
2021/09/15 10:34:35;;;;;;;7.7;7;;;;;;;24.47;65.16113;936.5439;;;;
2021/09/15 10:37:01;;;;;;;8.2;7.3;;;;;;;24.59;65.2041;936.5309;;;;
2021/09/15 10:39:27;;;;;;;11.2;7;;;;;;;24.7;63.52051;936.5701;;;;
2021/09/15 10:41:51;;;;;;;9.6;7.5;;;;;;;24.8;62.41504;936.5513;;;;
2021/09/15 10:44:16;;;;;;;9.5;7.4;;;;;;;24.84;62.02051;936.631;;;;
2021/09/15 10:46:41;;;;;;;7.2;6.5;;;;;;;24.81;60.56445;936.6227;;;;
2021/09/15 10:49:06;;;;;;;10.2;6.7;;;;;;;24.56;60.47168;936.6303;;;;
2021/09/15 10:51:31;;;;;;;6.9;6.1;;;;;;;24.56;60.40039;936.6555;;;;
2021/09/15 10:53:57;;;;;;;8.1;6.4;;;;;;;24.62;60.38574;936.5623;;;;
2021/09/15 10:56:22;;;;;;;8;6.4;;;;;;;24.48;60.99219;936.5825;;;;
2021/09/15 10:58:47;;;;;;;6.5;5.8;;;;;;;24.52;60.31348;936.4717;;;;
2021/09/15 11:01:12;;;;;;;6.3;5.7;;;;;;;24.53;60.375;936.5313;;;;
2021/09/15 11:03:40;;;;;;;6.8;6.1;;;;;;;24.42;61.28809;936.5551;;;;
2021/09/15 11:06:02;;;;;;;6.3;5.4;;;;;;;24.6;60.57227;936.5786;;;;
2021/09/15 11:08:28;;;;;;;6.2;5.6;;;;;;;24.66;61.72363;936.5392;;;;
2021/09/15 11:10:53;;;;;;;6.6;5.8;;;;;;;24.38;63.19238;936.4911;;;;
2021/09/15 11:13:18;;;;;;;6.8;5.7;;;;;;;24.49;61.92285;936.5278;;;;
2021/09/15 11:15:43;;;;;;;5.9;5.3;;;;;;;24.61;62.78906;936.4927;;;;
2021/09/15 11:18:08;;;;;;;6.6;5.3;;;;;;;24.73;62.65234;936.5034;;;;
2021/09/15 11:20:33;;;;;;;7.2;5.4;;;;;;;24.73;61.67383;936.5025;;;;
2021/09/15 11:22:58;;;;;;;7.6;5;;;;;;;24.97;60.69238;936.5303;;;;
2021/09/15 11:25:24;;;;;;;5.7;5.2;;;;;;;24.81;61.0957;936.5142;;;;
2021/09/15 11:27:49;;;;;;;6.2;5.2;;;;;;;25.05;59.99609;936.5369;;;;
2021/09/15 11:30:14;;;;;;;4.9;4.4;;;;;;;25.33;59.98633;936.5352;;;;
2021/09/15 11:32:39;;;;;;;5.2;4.6;;;;;;;25.58;58.71875;936.6061;;;;
2021/09/15 11:35:05;;;;;;;5.6;4.7;;;;;;;25.79;57.79004;936.5151;;;;
2021/09/15 11:37:30;;;;;;;6.5;5;;;;;;;25.95;57.66797;936.4983;;;;
2021/09/15 11:39:55;;;;;;;5.3;4.5;;;;;;;26.02;57.87891;936.4638;;;;
2021/09/15 11:42:20;;;;;;;10.1;5.5;;;;;;;26.16;58.16797;936.4277;;;;
2021/09/15 11:44:45;;;;;;;5.2;4.7;;;;;;;26.1;58.23242;936.4927;;;;
2021/09/15 11:47:10;;;;;;;7.6;4.8;;;;;;;26.35;57.62598;936.5024;;;;
2021/09/15 11:49:35;;;;;;;5.4;4.5;;;;;;;26.06;57.86035;936.4906;;;;
2021/09/15 11:52:01;;;;;;;5.4;4.7;;;;;;;26.05;59.37305;936.5148;;;;
2021/09/15 11:54:27;;;;;;;6.7;4.7;;;;;;;26.44;58.70117;936.4352;;;;
2021/09/15 11:57:03;;;;;;;5.8;5;;;;;;;26.13;57.50195;936.4186;;;;
2021/09/15 11:59:16;;;;;;;5.8;5;;;;;;;25.98;58.73633;936.4574;;;;
2021/09/15 12:01:41;;;;;;;5.3;4.6;;;;;;;26.2;58.57617;936.3886;;;;
2021/09/15 12:04:06;;;;;;;4.9;4.4;;;;;;;26.57;56.05371;936.4086;;;;
2021/09/15 12:06:31;;;;;;;6.2;4.8;;;;;;;26.45;56.82129;936.3938;;;;
2021/09/15 12:08:57;;;;;;;6.3;5;;;;;;;26.25;58.2627;936.3675;;;;
2021/09/15 12:11:22;;;;;;;6.8;5.1;;;;;;;26.05;59.06445;936.3436;;;;
2021/09/15 12:13:47;;;;;;;6;4.8;;;;;;;25.6;60.84863;936.2072;;;;
2021/09/15 12:16:12;;;;;;;5.8;5.1;;;;;;;25.74;60.58398;936.2642;;;;
2021/09/15 12:18:37;;;;;;;6.2;5.1;;;;;;;25.77;61.33301;936.2927;;;;
2021/09/15 12:21:02;;;;;;;6.3;4.7;;;;;;;25.87;60;936.2572;;;;
2021/09/15 12:23:27;;;;;;;6;4.9;;;;;;;25.68;58.50879;936.2188;;;;
2021/09/15 12:25:52;;;;;;;6.7;5.1;;;;;;;25.7;60.35352;936.2239;;;;
2021/09/15 12:28:18;;;;;;;5.8;4.8;;;;;;;25.33;60.86035;936.2656;;;;
2021/09/15 12:30:43;;;;;;;6.8;5;;;;;;;25.43;60.82617;936.2266;;;;
2021/09/15 12:33:08;;;;;;;5.7;5.1;;;;;;;25.51;61.91211;936.2338;;;;
2021/09/15 12:35:36;;;;;;;4.9;4.4;;;;;;;26.09;59.02344;936.2477;;;;
2021/09/15 12:37:58;;;;;;;5.5;4.6;;;;;;;26.6;57.43164;936.2255;;;;
2021/09/15 12:40:24;;;;;;;6.2;4.7;;;;;;;26.74;55.88574;936.2058;;;;
2021/09/15 12:42:49;;;;;;;5.2;4.6;;;;;;;26.38;57.00195;936.2649;;;;
2021/09/15 12:45:14;;;;;;;5.9;4.9;;;;;;;25.74;59.96973;936.212;;;;
2021/09/15 12:47:40;;;;;;;5.1;4.6;;;;;;;25.91;61.05762;936.1637;;;;
2021/09/15 12:50:06;;;;;;;5.8;4.8;;;;;;;26.03;59.5459;936.2083;;;;
2021/09/15 12:52:30;;;;;;;5.1;4.3;;;;;;;26.07;60.22754;936.2003;;;;
2021/09/15 12:54:55;;;;;;;5.4;4.7;;;;;;;26.65;57.13086;936.1312;;;;
2021/09/15 12:57:20;;;;;;;8.5;5.1;;;;;;;26.76;56.39844;936.0657;;;;
2021/09/15 12:59:46;;;;;;;5.9;5;;;;;;;26.51;57.91797;936.1788;;;;
2021/09/15 13:02:11;;;;;;;5.8;4.7;;;;;;;26.09;58.00586;936.1071;;;;
2021/09/15 13:04:36;;;;;;;5.6;5;;;;;;;26.14;57.76465;936.1287;;;;
2021/09/15 13:07:01;;;;;;;5.8;4.7;;;;;;;25.79;60.78125;936.1294;;;;
2021/09/15 13:09:26;;;;;;;5.7;4.5;;;;;;;25.67;61.31934;936.1077;;;;
2021/09/15 13:11:51;;;;;;;7.5;4.9;;;;;;;25.52;62.31543;936.0897;;;;
2021/09/15 13:14:16;;;;;;;5.7;5;;;;;;;26.03;59.57129;936.0966;;;;
2021/09/15 13:16:43;;;;;;;4.9;4.4;;;;;;;26.32;57.62207;936.0622;;;;
2021/09/15 13:19:12;;;;;;;5.9;4.8;;;;;;;26.19;58.82324;936.0291;;;;
2021/09/15 13:21:37;;;;;;;4.8;4.2;;;;;;;26.24;59.29102;936.0284;;;;
2021/09/15 13:24:02;;;;;;;5.9;5;;;;;;;25.93;60.62207;936.0428;;;;
2021/09/15 13:26:34;;;;;;;5.5;4.3;;;;;;;25.69;61.00293;936.0316;;;;
2021/09/15 13:29:02;;;;;;;5.7;5;;;;;;;25.53;61.57227;936.0311;;;;
2021/09/15 13:31:27;;;;;;;5.1;4.6;;;;;;;25.29;60.80762;935.9796;;;;
2021/09/15 13:33:53;;;;;;;5.4;4.8;;;;;;;25.21;61.26758;935.9749;;;;
2021/09/15 13:36:20;;;;;;;5.2;4.7;;;;;;;25.32;60.96484;935.9953;;;;
2021/09/15 13:38:45;;;;;;;6.5;5.2;;;;;;;24.67;64.22363;935.9356;;;;
2021/09/15 13:41:14;;;;;;;5.1;4.4;;;;;;;24.78;64.51172;935.9325;;;;
2021/09/15 13:47:57;;;;;;;5.4;4.9;;;;;;;24.67;64.76758;935.9492;;;;
2021/09/15 13:50:25;;;;;;;5.5;4.9;;;;;;;24.66;66.67578;935.9343;;;;
2021/09/15 13:52:50;;;;;;;5.8;5;;;;;;;24.7;65.94922;935.9667;;;;
2021/09/15 13:55:20;;;;;;;5.4;4.9;;;;;;;24.66;67.17188;935.9774;;;;
2021/09/15 13:57:45;;;;;;;6.9;5.1;;;;;;;24.56;66.07227;935.8208;;;;
2021/09/15 14:00:15;;;;;;;6.4;4.9;;;;;;;24.63;66.39844;935.8234;;;;
2021/09/15 14:02:40;;;;;;;6;4.6;;;;;;;24.64;68.07617;935.7797;;;;
2021/09/15 14:05:06;;;;;;;6.9;4.9;;;;;;;24.63;68.67383;935.755;;;;
2021/09/15 14:07:31;;;;;;;5.8;5.1;;;;;;;24.63;67.94238;935.6622;;;;
2021/09/15 14:10:00;;;;;;;7.9;5.5;;;;;;;24.61;69.40137;935.6778;;;;
2021/09/15 14:12:25;;;;;;;7.9;5.4;;;;;;;24.48;69.48828;935.614;;;;
2021/09/15 14:14:54;;;;;;;7.8;5.5;;;;;;;24.5;69.50293;935.5667;;;;
2021/09/15 14:17:21;;;;;;;6.7;5.3;;;;;;;24.69;69.14453;935.5736;;;;
2021/09/15 14:19:46;;;;;;;6.8;5.3;;;;;;;24.85;70.38477;935.4624;;;;
2021/09/15 14:22:15;;;;;;;5.4;4.8;;;;;;;24.93;66.82129;935.43;;;;
2021/09/15 14:24:48;;;;;;;5.6;4.6;;;;;;;25.21;64.70313;935.4172;;;;
2021/09/15 14:27:32;;;;;;;5.9;4.8;;;;;;;25.63;63.14551;935.4261;;;;
2021/09/15 14:30:02;;;;;;;6.3;4.6;;;;;;;26;62.36914;935.313;;;;
2021/09/15 14:32:26;;;;;;;5.6;4.9;;;;;;;25.73;62.4043;935.2879;;;;
2021/09/15 14:34:53;;;;;;;5.3;4.7;;;;;;;25.75;65.00684;935.171;;;;
2021/09/15 14:37:18;;;;;;;5.5;4.8;;;;;;;25.83;62.20508;935.1531;;;;
2021/09/15 14:39:43;;;;;;;7.6;5.2;;;;;;;25.5;64.55566;935.1615;;;;
2021/09/15 14:42:12;;;;;;;6;4.8;;;;;;;25.63;62.82813;935.0784;;;;
2021/09/15 14:44:37;;;;;;;5.7;5.1;;;;;;;25.6;63.75586;935.1417;;;;
2021/09/15 14:47:04;;;;;;;6.1;4.8;;;;;;;25.78;63.03711;935.0681;;;;
2021/09/15 14:49:29;;;;;;;5.2;4.7;;;;;;;25.64;63.60742;935.1281;;;;
2021/09/15 14:51:56;;;;;;;6.6;5.2;;;;;;;26.06;60.4375;935.066;;;;
2021/09/15 14:54:21;;;;;;;5.8;4.7;;;;;;;26.23;60.27148;935.0622;;;;
2021/09/15 14:56:49;;;;;;;5.3;4.8;;;;;;;26.28;60.90527;935.0442;;;;
2021/09/15 14:59:14;;;;;;;7.3;4.8;;;;;;;26;61.89551;935.0055;;;;
2021/09/15 15:01:42;;;;;;;6.7;5.1;;;;;;;25.89;62;935.0302;;;;
2021/09/15 15:04:07;;;;;;;6.2;5.2;;;;;;;25.75;60.125;934.9647;;;;
2021/09/15 15:06:35;;;;;;;7.8;5.2;;;;;;;25.76;62.22949;934.9645;;;;
2021/09/15 15:09:00;;;;;;;7;5.2;;;;;;;25.69;61.65234;935.0222;;;;
2021/09/15 15:11:27;;;;;;;5.8;5.2;;;;;;;25.72;62.68457;935.0538;;;;
2021/09/15 15:13:52;;;;;;;6.1;4.5;;;;;;;25.38;61.51563;935.0435;;;;
2021/09/15 15:16:20;;;;;;;6.3;5.2;;;;;;;25.26;63.17578;935.0683;;;;
2021/09/15 15:18:47;;;;;;;5.8;5.1;;;;;;;25.34;62.06445;935.0664;;;;
2021/09/15 15:21:12;;;;;;;5.5;4.9;;;;;;;25.28;62.68262;935.1203;;;;
2021/09/15 15:23:40;;;;;;;5.5;4.7;;;;;;;25.04;61.50488;935.1741;;;;
2021/09/15 15:26:04;;;;;;;6.1;5;;;;;;;25.14;61.28125;935.2327;;;;
2021/09/15 15:28:29;;;;;;;6;5;;;;;;;25.2;60.68848;935.2631;;;;
2021/09/15 15:31:00;;;;;;;7.1;4.9;;;;;;;25.17;60.22559;935.3147;;;;
2021/09/15 15:33:30;;;;;;;5.1;4.6;;;;;;;25.08;60.12891;935.3254;;;;
2021/09/15 15:35:55;;;;;;;5.3;4.3;;;;;;;24.98;58.66504;935.3442;;;;
2021/09/15 15:38:24;;;;;;;8.1;4.6;;;;;;;25.01;59.01074;935.3781;;;;